sensor_id;sensor_type;location;lat;lon;timestamp;pressure;altitude;pressure_sealevel;temperature;humidity
39295;BME280;52361;52.100;5.248;2023-04-08T00:00:30;102193.0;;;10.3;100.0
39295;BME280;52361;52.100;5.248;2023-04-08T00:02:06;102200.0;;;10.32;100.0
39295;BME280;52361;52.100;5.248;2023-04-08T00:05:19;102202.0;;;10.3;100.0
39295;BME280;52361;52.100;5.248;2023-04-08T00:06:55;102197.0;;;10.29;100.0
39295;BME280;52361;52.100;5.248;2023-04-08T00:08:31;102203.0;;;10.37;100.0
39295;BME280;52361;52.100;5.248;2023-04-08T00:11:44;102200.0;;;10.37;100.0
39295;BME280;52361;52.100;5.248;2023-04-08T00:13:20;102203.0;;;10.22;100.0
39295;BME280;52361;52.100;5.248;2023-04-08T00:14:56;102201.0;;;10.21;100.0
39295;BME280;52361;52.100;5.248;2023-04-08T00:18:08;102201.0;;;10.16;100.0
39295;BME280;52361;52.100;5.248;2023-04-08T00:19:44;102203.0;;;10.16;100.0
39295;BME280;52361;52.100;5.248;2023-04-08T00:21:21;102203.0;;;9.99;100.0
39295;BME280;52361;52.100;5.248;2023-04-08T00:22:58;102200.0;;;10.11;100.0
39295;BME280;52361;52.100;5.248;2023-04-08T00:26:10;102201.0;;;10.02;100.0
39295;BME280;52361;52.100;5.248;2023-04-08T00:27:46;102199.0;;;10.06;100.0
39295;BME280;52361;52.100;5.248;2023-04-08T00:29:22;102195.0;;;9.92;100.0
39295;BME280;52361;52.100;5.248;2023-04-08T00:32:35;102196.0;;;9.83;100.0
39295;BME280;52361;52.100;5.248;2023-04-08T00:34:11;102197.0;;;9.92;100.0
39295;BME280;52361;52.100;5.248;2023-04-08T00:35:47;102197.0;;;9.84;100.0
39295;BME280;52361;52.100;5.248;2023-04-08T00:38:59;102200.0;;;9.83;100.0
39295;BME280;52361;52.100;5.248;2023-04-08T00:40:35;102196.0;;;9.72;100.0
39295;BME280;52361;52.100;5.248;2023-04-08T00:42:11;102201.0;;;9.81;100.0
39295;BME280;52361;52.100;5.248;2023-04-08T00:45:24;102201.0;;;9.82;100.0
39295;BME280;52361;52.100;5.248;2023-04-08T00:47:02;102200.0;;;9.77;100.0
39295;BME280;52361;52.100;5.248;2023-04-08T00:48:39;102202.0;;;9.74;100.0
39295;BME280;52361;52.100;5.248;2023-04-08T00:50:15;102205.0;;;9.73;100.0
39295;BME280;52361;52.100;5.248;2023-04-08T00:53:30;102205.0;;;9.8;100.0
39295;BME280;52361;52.100;5.248;2023-04-08T00:55:06;102202.0;;;9.67;100.0
39295;BME280;52361;52.100;5.248;2023-04-08T00:56:42;102199.0;;;9.73;100.0
39295;BME280;52361;52.100;5.248;2023-04-08T00:59:56;102197.0;;;9.74;100.0
39295;BME280;52361;52.100;5.248;2023-04-08T01:01:39;102200.0;;;9.73;100.0
39295;BME280;52361;52.100;5.248;2023-04-08T01:03:26;102200.0;;;9.73;100.0
39295;BME280;52361;52.100;5.248;2023-04-08T01:05:13;102208.0;;;9.66;100.0
39295;BME280;52361;52.100;5.248;2023-04-08T01:08:36;102210.0;;;9.78;100.0
39295;BME280;52361;52.100;5.248;2023-04-08T01:10:17;102214.0;;;9.73;100.0
39295;BME280;52361;52.100;5.248;2023-04-08T01:12:06;102214.0;;;9.72;100.0
39295;BME280;52361;52.100;5.248;2023-04-08T01:13:44;102215.0;;;9.71;100.0
39295;BME280;52361;52.100;5.248;2023-04-08T01:15:23;102210.0;;;9.72;100.0
39295;BME280;52361;52.100;5.248;2023-04-08T01:18:37;102219.0;;;9.72;100.0
39295;BME280;52361;52.100;5.248;2023-04-08T01:20:15;102217.0;;;9.58;100.0
39295;BME280;52361;52.100;5.248;2023-04-08T01:21:53;102215.0;;;9.48;100.0
39295;BME280;52361;52.100;5.248;2023-04-08T01:25:20;102216.0;;;9.5;100.0
39295;BME280;52361;52.100;5.248;2023-04-08T01:26:59;102216.0;;;9.48;100.0
39295;BME280;52361;52.100;5.248;2023-04-08T01:28:38;102219.0;;;9.57;100.0
39295;BME280;52361;52.100;5.248;2023-04-08T01:30:17;102218.0;;;9.55;100.0
39295;BME280;52361;52.100;5.248;2023-04-08T01:33:31;102221.0;;;9.42;100.0
39295;BME280;52361;52.100;5.248;2023-04-08T01:35:08;102222.0;;;9.39;100.0
39295;BME280;52361;52.100;5.248;2023-04-08T01:36:46;102225.0;;;9.43;100.0
39295;BME280;52361;52.100;5.248;2023-04-08T01:38:24;102230.0;;;9.24;100.0
39295;BME280;52361;52.100;5.248;2023-04-08T01:41:38;102230.0;;;9.26;100.0
39295;BME280;52361;52.100;5.248;2023-04-08T01:43:16;102231.0;;;9.32;100.0
39295;BME280;52361;52.100;5.248;2023-04-08T01:44:54;102235.0;;;9.34;100.0
39295;BME280;52361;52.100;5.248;2023-04-08T01:48:11;102228.0;;;9.22;100.0
39295;BME280;52361;52.100;5.248;2023-04-08T01:49:49;102230.0;;;9.23;100.0
39295;BME280;52361;52.100;5.248;2023-04-08T01:51:27;102230.0;;;9.18;100.0
39295;BME280;52361;52.100;5.248;2023-04-08T01:53:07;102233.0;;;9.24;100.0
39295;BME280;52361;52.100;5.248;2023-04-08T01:56:21;102233.0;;;9.19;100.0
39295;BME280;52361;52.100;5.248;2023-04-08T01:57:59;102232.0;;;9.13;100.0
39295;BME280;52361;52.100;5.248;2023-04-08T01:59:37;102226.0;;;9.14;100.0
39295;BME280;52361;52.100;5.248;2023-04-08T02:02:56;102227.0;;;9.15;100.0
39295;BME280;52361;52.100;5.248;2023-04-08T02:04:34;102226.0;;;9.09;100.0
39295;BME280;52361;52.100;5.248;2023-04-08T02:06:11;102225.0;;;9.06;100.0
39295;BME280;52361;52.100;5.248;2023-04-08T02:07:47;102227.0;;;9.07;100.0
39295;BME280;52361;52.100;5.248;2023-04-08T02:11:01;102226.0;;;8.97;100.0
39295;BME280;52361;52.100;5.248;2023-04-08T02:12:37;102226.0;;;8.98;100.0
39295;BME280;52361;52.100;5.248;2023-04-08T02:14:15;102225.0;;;9.02;100.0
39295;BME280;52361;52.100;5.248;2023-04-08T02:17:40;102223.0;;;8.98;100.0
39295;BME280;52361;52.100;5.248;2023-04-08T02:19:23;102227.0;;;8.98;100.0
39295;BME280;52361;52.100;5.248;2023-04-08T02:21:08;102225.0;;;8.97;100.0
39295;BME280;52361;52.100;5.248;2023-04-08T02:22:51;102226.0;;;9.0;100.0
39295;BME280;52361;52.100;5.248;2023-04-08T02:24:40;102225.0;;;8.9;100.0
39295;BME280;52361;52.100;5.248;2023-04-08T02:27:57;102224.0;;;8.91;100.0
39295;BME280;52361;52.100;5.248;2023-04-08T02:29:39;102230.0;;;8.98;100.0
39295;BME280;52361;52.100;5.248;2023-04-08T02:31:18;102228.0;;;8.93;100.0
39295;BME280;52361;52.100;5.248;2023-04-08T02:32:56;102233.0;;;9.06;100.0
39295;BME280;52361;52.100;5.248;2023-04-08T02:36:11;102236.0;;;9.05;100.0
39295;BME280;52361;52.100;5.248;2023-04-08T02:37:49;102234.0;;;9.03;100.0
39295;BME280;52361;52.100;5.248;2023-04-08T02:39:30;102233.0;;;9.05;100.0
39295;BME280;52361;52.100;5.248;2023-04-08T02:41:06;102230.0;;;9.01;100.0
39295;BME280;52361;52.100;5.248;2023-04-08T02:44:18;102236.0;;;8.97;100.0
39295;BME280;52361;52.100;5.248;2023-04-08T02:45:55;102240.0;;;9.02;100.0
39295;BME280;52361;52.100;5.248;2023-04-08T02:50:43;102239.0;;;8.93;100.0
39295;BME280;52361;52.100;5.248;2023-04-08T02:52:19;102242.0;;;8.99;100.0
39295;BME280;52361;52.100;5.248;2023-04-08T02:53:55;102243.0;;;8.92;100.0
39295;BME280;52361;52.100;5.248;2023-04-08T02:57:07;102247.0;;;8.92;100.0
39295;BME280;52361;52.100;5.248;2023-04-08T02:58:44;102244.0;;;8.9;100.0
39295;BME280;52361;52.100;5.248;2023-04-08T03:00:20;102250.0;;;8.86;100.0
39295;BME280;52361;52.100;5.248;2023-04-08T03:03:32;102249.0;;;8.85;100.0
39295;BME280;52361;52.100;5.248;2023-04-08T03:05:08;102251.0;;;8.81;100.0
39295;BME280;52361;52.100;5.248;2023-04-08T03:06:45;102249.0;;;8.86;100.0
39295;BME280;52361;52.100;5.248;2023-04-08T03:08:22;102253.0;;;8.84;100.0
39295;BME280;52361;52.100;5.248;2023-04-08T03:11:35;102256.0;;;8.91;100.0
39295;BME280;52361;52.100;5.248;2023-04-08T03:13:11;102256.0;;;8.82;100.0
39295;BME280;52361;52.100;5.248;2023-04-08T03:14:47;102259.0;;;8.9;100.0
39295;BME280;52361;52.100;5.248;2023-04-08T03:18:00;102256.0;;;8.94;100.0
39295;BME280;52361;52.100;5.248;2023-04-08T03:19:37;102258.0;;;8.9;100.0
39295;BME280;52361;52.100;5.248;2023-04-08T03:21:13;102257.0;;;8.8;100.0
39295;BME280;52361;52.100;5.248;2023-04-08T03:24:25;102255.0;;;8.73;100.0
39295;BME280;52361;52.100;5.248;2023-04-08T03:26:01;102256.0;;;8.9;100.0
39295;BME280;52361;52.100;5.248;2023-04-08T03:27:37;102259.0;;;8.88;100.0
39295;BME280;52361;52.100;5.248;2023-04-08T03:29:13;102251.0;;;8.77;100.0
39295;BME280;52361;52.100;5.248;2023-04-08T03:35:38;102260.0;;;8.82;100.0
39295;BME280;52361;52.100;5.248;2023-04-08T03:38:49;102257.0;;;8.78;100.0
39295;BME280;52361;52.100;5.248;2023-04-08T03:40:26;102258.0;;;8.82;100.0
39295;BME280;52361;52.100;5.248;2023-04-08T03:42:02;102260.0;;;8.77;100.0
39295;BME280;52361;52.100;5.248;2023-04-08T03:46:50;102264.0;;;8.71;100.0
39295;BME280;52361;52.100;5.248;2023-04-08T03:48:26;102265.0;;;8.72;100.0
39295;BME280;52361;52.100;5.248;2023-04-08T03:51:38;102264.0;;;8.68;100.0
39295;BME280;52361;52.100;5.248;2023-04-08T03:53:15;102265.0;;;8.75;100.0
39295;BME280;52361;52.100;5.248;2023-04-08T03:54:51;102269.0;;;8.77;100.0
39295;BME280;52361;52.100;5.248;2023-04-08T03:56:27;102272.0;;;8.83;100.0
39295;BME280;52361;52.100;5.248;2023-04-08T03:59:39;102269.0;;;8.88;100.0
39295;BME280;52361;52.100;5.248;2023-04-08T04:01:15;102270.0;;;8.83;100.0
39295;BME280;52361;52.100;5.248;2023-04-08T04:02:52;102272.0;;;8.77;100.0
39295;BME280;52361;52.100;5.248;2023-04-08T04:09:16;102281.0;;;8.8;100.0
39295;BME280;52361;52.100;5.248;2023-04-08T04:12:28;102277.0;;;8.74;100.0
39295;BME280;52361;52.100;5.248;2023-04-08T04:14:05;102276.0;;;8.81;100.0
39295;BME280;52361;52.100;5.248;2023-04-08T04:15:41;102276.0;;;8.66;100.0
39295;BME280;52361;52.100;5.248;2023-04-08T04:17:17;102277.0;;;8.78;100.0
39295;BME280;52361;52.100;5.248;2023-04-08T04:20:29;102278.0;;;8.68;100.0
39295;BME280;52361;52.100;5.248;2023-04-08T04:22:05;102288.0;;;8.69;100.0
39295;BME280;52361;52.100;5.248;2023-04-08T04:26:54;102294.0;;;8.6;100.0
39295;BME280;52361;52.100;5.248;2023-04-08T04:28:30;102298.0;;;8.66;100.0
39295;BME280;52361;52.100;5.248;2023-04-08T04:30:07;102305.0;;;8.74;100.0
39295;BME280;52361;52.100;5.248;2023-04-08T04:33:19;102305.0;;;8.66;100.0
39295;BME280;52361;52.100;5.248;2023-04-08T04:34:55;102301.0;;;8.53;100.0
39295;BME280;52361;52.100;5.248;2023-04-08T04:36:31;102305.0;;;8.61;100.0
39295;BME280;52361;52.100;5.248;2023-04-08T04:41:20;102312.0;;;8.56;100.0
39295;BME280;52361;52.100;5.248;2023-04-08T04:42:56;102314.0;;;8.57;100.0
39295;BME280;52361;52.100;5.248;2023-04-08T04:44:32;102314.0;;;8.58;100.0
39295;BME280;52361;52.100;5.248;2023-04-08T04:47:44;102314.0;;;8.67;100.0
39295;BME280;52361;52.100;5.248;2023-04-08T04:49:21;102318.0;;;8.66;100.0
39295;BME280;52361;52.100;5.248;2023-04-08T04:54:12;102319.0;;;8.72;100.0
39295;BME280;52361;52.100;5.248;2023-04-08T04:55:49;102317.0;;;8.74;100.0
39295;BME280;52361;52.100;5.248;2023-04-08T05:00:38;102325.0;;;8.78;100.0
39295;BME280;52361;52.100;5.248;2023-04-08T05:02:15;102325.0;;;8.81;100.0
39295;BME280;52361;52.100;5.248;2023-04-08T05:03:51;102326.0;;;8.83;100.0
39295;BME280;52361;52.100;5.248;2023-04-08T05:05:27;102324.0;;;8.86;100.0
39295;BME280;52361;52.100;5.248;2023-04-08T05:08:39;102330.0;;;8.76;100.0
39295;BME280;52361;52.100;5.248;2023-04-08T05:10:16;102327.0;;;8.77;100.0
39295;BME280;52361;52.100;5.248;2023-04-08T05:11:52;102324.0;;;8.84;100.0
39295;BME280;52361;52.100;5.248;2023-04-08T05:15:05;102326.0;;;8.78;100.0
39295;BME280;52361;52.100;5.248;2023-04-08T05:16:41;102327.0;;;8.77;100.0
39295;BME280;52361;52.100;5.248;2023-04-08T05:18:17;102335.0;;;8.59;100.0
39295;BME280;52361;52.100;5.248;2023-04-08T05:21:30;102336.0;;;8.4;100.0
39295;BME280;52361;52.100;5.248;2023-04-08T05:23:06;102337.0;;;8.51;100.0
39295;BME280;52361;52.100;5.248;2023-04-08T05:24:42;102343.0;;;8.48;100.0
39295;BME280;52361;52.100;5.248;2023-04-08T05:26:18;102341.0;;;8.39;100.0
39295;BME280;52361;52.100;5.248;2023-04-08T05:29:31;102347.0;;;8.53;100.0
39295;BME280;52361;52.100;5.248;2023-04-08T05:31:07;102347.0;;;8.47;100.0
39295;BME280;52361;52.100;5.248;2023-04-08T05:32:43;102344.0;;;8.38;100.0
39295;BME280;52361;52.100;5.248;2023-04-08T05:35:55;102346.0;;;8.33;100.0
39295;BME280;52361;52.100;5.248;2023-04-08T05:37:31;102345.0;;;8.24;100.0
39295;BME280;52361;52.100;5.248;2023-04-08T05:39:07;102343.0;;;8.13;100.0
39295;BME280;52361;52.100;5.248;2023-04-08T05:42:20;102352.0;;;8.13;100.0
39295;BME280;52361;52.100;5.248;2023-04-08T05:43:56;102353.0;;;8.08;100.0
39295;BME280;52361;52.100;5.248;2023-04-08T05:45:32;102359.0;;;8.02;100.0
39295;BME280;52361;52.100;5.248;2023-04-08T05:50:20;102362.0;;;7.94;100.0
39295;BME280;52361;52.100;5.248;2023-04-08T05:51:56;102364.0;;;7.89;100.0
39295;BME280;52361;52.100;5.248;2023-04-08T05:53:32;102371.0;;;8.01;100.0
39295;BME280;52361;52.100;5.248;2023-04-08T05:56:45;102372.0;;;8.01;100.0
39295;BME280;52361;52.100;5.248;2023-04-08T05:58:21;102369.0;;;7.96;100.0
39295;BME280;52361;52.100;5.248;2023-04-08T05:59:57;102374.0;;;8.02;100.0
39295;BME280;52361;52.100;5.248;2023-04-08T06:03:09;102377.0;;;7.94;100.0
39295;BME280;52361;52.100;5.248;2023-04-08T06:04:46;102377.0;;;7.95;100.0
39295;BME280;52361;52.100;5.248;2023-04-08T06:06:22;102378.0;;;7.95;100.0
39295;BME280;52361;52.100;5.248;2023-04-08T06:09:34;102382.0;;;7.83;100.0
39295;BME280;52361;52.100;5.248;2023-04-08T06:11:10;102378.0;;;7.94;100.0
39295;BME280;52361;52.100;5.248;2023-04-08T06:12:46;102382.0;;;7.74;100.0
39295;BME280;52361;52.100;5.248;2023-04-08T06:16:09;102383.0;;;7.75;100.0
39295;BME280;52361;52.100;5.248;2023-04-08T06:17:46;102380.0;;;7.71;100.0
39295;BME280;52361;52.100;5.248;2023-04-08T06:19:22;102384.0;;;7.88;100.0
39295;BME280;52361;52.100;5.248;2023-04-08T06:20:58;102387.0;;;7.88;100.0
39295;BME280;52361;52.100;5.248;2023-04-08T06:24:10;102390.0;;;7.89;100.0
39295;BME280;52361;52.100;5.248;2023-04-08T06:25:46;102387.0;;;7.98;100.0
39295;BME280;52361;52.100;5.248;2023-04-08T06:27:22;102393.0;;;7.86;100.0
39295;BME280;52361;52.100;5.248;2023-04-08T06:30:35;102393.0;;;7.96;100.0
39295;BME280;52361;52.100;5.248;2023-04-08T06:33:47;102398.0;;;7.96;100.0
39295;BME280;52361;52.100;5.248;2023-04-08T06:38:35;102409.99999999999;;;8.23;100.0
39295;BME280;52361;52.100;5.248;2023-04-08T06:40:12;102409.99999999999;;;8.4;100.0
39295;BME280;52361;52.100;5.248;2023-04-08T06:41:48;102413.00000000001;;;8.61;100.0
39295;BME280;52361;52.100;5.248;2023-04-08T06:45:00;102416.00000000001;;;8.8;100.0
39295;BME280;52361;52.100;5.248;2023-04-08T06:46:36;102421.0;;;8.98;100.0
39295;BME280;52361;52.100;5.248;2023-04-08T06:48:12;102419.0;;;9.28;100.0
39295;BME280;52361;52.100;5.248;2023-04-08T06:51:25;102425.0;;;9.36;100.0
39295;BME280;52361;52.100;5.248;2023-04-08T06:57:49;102436.99999999999;;;9.94;100.0
39295;BME280;52361;52.100;5.248;2023-04-08T06:59:26;102432.0;;;10.08;100.0
39295;BME280;52361;52.100;5.248;2023-04-08T07:01:02;102440.00000000001;;;10.18;100.0
39295;BME280;52361;52.100;5.248;2023-04-08T07:02:38;102433.99999999999;;;10.14;100.0
39295;BME280;52361;52.100;5.248;2023-04-08T07:05:51;102436.99999999999;;;10.29;100.0
39295;BME280;52361;52.100;5.248;2023-04-08T07:07:26;102448.0;;;10.36;100.0
39295;BME280;52361;52.100;5.248;2023-04-08T07:09:03;102453.0;;;10.63;100.0
39295;BME280;52361;52.100;5.248;2023-04-08T07:12:15;102455.0;;;10.68;100.0
39295;BME280;52361;52.100;5.248;2023-04-08T07:13:51;102451.0;;;10.75;100.0
39295;BME280;52361;52.100;5.248;2023-04-08T07:15:27;102448.0;;;10.63;100.0
39295;BME280;52361;52.100;5.248;2023-04-08T07:18:40;102453.0;;;10.79;100.0
39295;BME280;52361;52.100;5.248;2023-04-08T07:20:16;102455.0;;;10.82;100.0
39295;BME280;52361;52.100;5.248;2023-04-08T07:21:52;102459.99999999999;;;10.91;100.0
39295;BME280;52361;52.100;5.248;2023-04-08T07:23:28;102465.00000000001;;;10.83;100.0
39295;BME280;52361;52.100;5.248;2023-04-08T07:26:42;102467.0;;;10.76;100.0
39295;BME280;52361;52.100;5.248;2023-04-08T07:28:18;102471.0;;;10.91;100.0
39295;BME280;52361;52.100;5.248;2023-04-08T07:29:54;102473.0;;;11.03;100.0
39295;BME280;52361;52.100;5.248;2023-04-08T07:33:06;102467.0;;;11.18;100.0
39295;BME280;52361;52.100;5.248;2023-04-08T07:34:42;102470.0;;;11.12;100.0
39295;BME280;52361;52.100;5.248;2023-04-08T07:36:19;102472.0;;;11.12;100.0
39295;BME280;52361;52.100;5.248;2023-04-08T07:39:31;102469.0;;;11.22;100.0
39295;BME280;52361;52.100;5.248;2023-04-08T07:41:07;102469.0;;;11.14;100.0
39295;BME280;52361;52.100;5.248;2023-04-08T07:42:43;102469.0;;;11.44;100.0
39295;BME280;52361;52.100;5.248;2023-04-08T07:45:59;102471.0;;;11.58;100.0
39295;BME280;52361;52.100;5.248;2023-04-08T07:47:35;102471.0;;;11.58;100.0
39295;BME280;52361;52.100;5.248;2023-04-08T07:49:11;102473.0;;;11.55;100.0
39295;BME280;52361;52.100;5.248;2023-04-08T07:50:47;102481.0;;;11.83;100.0
39295;BME280;52361;52.100;5.248;2023-04-08T07:53:59;102481.0;;;12.0;98.52
39295;BME280;52361;52.100;5.248;2023-04-08T07:55:36;102484.99999999999;;;12.22;99.25
39295;BME280;52361;52.100;5.248;2023-04-08T07:57:12;102481.0;;;12.21;97.92
39295;BME280;52361;52.100;5.248;2023-04-08T08:00:24;102483.0;;;12.32;98.64
39295;BME280;52361;52.100;5.248;2023-04-08T08:02:00;102486.99999999999;;;12.41;97.86
39295;BME280;52361;52.100;5.248;2023-04-08T08:03:36;102488.00000000001;;;12.4;96.56
39295;BME280;52361;52.100;5.248;2023-04-08T08:06:49;102491.00000000001;;;12.21;96.11
39295;BME280;52361;52.100;5.248;2023-04-08T08:08:25;102484.99999999999;;;12.52;96.46
39295;BME280;52361;52.100;5.248;2023-04-08T08:10:01;102488.00000000001;;;12.86;93.07
39295;BME280;52361;52.100;5.248;2023-04-08T08:11:37;102492.0;;;13.01;92.69
39295;BME280;52361;52.100;5.248;2023-04-08T08:14:50;102491.00000000001;;;13.02;92.65
39295;BME280;52361;52.100;5.248;2023-04-08T08:16:27;102490.00000000001;;;13.19;91.25
39295;BME280;52361;52.100;5.248;2023-04-08T08:18:03;102490.00000000001;;;13.3;91.16
39295;BME280;52361;52.100;5.248;2023-04-08T08:21:15;102489.00000000001;;;13.26;89.21
39295;BME280;52361;52.100;5.248;2023-04-08T08:22:51;102482.0;;;13.27;89.92
39295;BME280;52361;52.100;5.248;2023-04-08T08:24:28;102488.00000000001;;;13.3;90.18
39295;BME280;52361;52.100;5.248;2023-04-08T08:27:42;102486.99999999999;;;13.21;91.28
39295;BME280;52361;52.100;5.248;2023-04-08T08:29:18;102489.00000000001;;;13.3;90.74
39295;BME280;52361;52.100;5.248;2023-04-08T08:30:54;102491.00000000001;;;13.35;87.67
39295;BME280;52361;52.100;5.248;2023-04-08T08:32:30;102490.00000000001;;;13.26;87.75
39295;BME280;52361;52.100;5.248;2023-04-08T08:35:43;102495.0;;;13.28;89.06
39295;BME280;52361;52.100;5.248;2023-04-08T08:37:19;102498.0;;;13.42;86.67
39295;BME280;52361;52.100;5.248;2023-04-08T08:38:55;102502.0;;;13.58;86.21
39295;BME280;52361;52.100;5.248;2023-04-08T08:42:17;102495.0;;;13.64;86.54
39295;BME280;52361;52.100;5.248;2023-04-08T08:43:55;102498.0;;;13.58;86.42
39295;BME280;52361;52.100;5.248;2023-04-08T08:45:32;102501.0;;;13.37;84.48
39295;BME280;52361;52.100;5.248;2023-04-08T08:47:08;102504.0;;;13.71;86.2
39295;BME280;52361;52.100;5.248;2023-04-08T08:50:21;102503.0;;;13.86;84.39
39295;BME280;52361;52.100;5.248;2023-04-08T08:51:57;102503.0;;;14.09;81.36
39295;BME280;52361;52.100;5.248;2023-04-08T08:53:35;102504.0;;;14.1;84.37
39295;BME280;52361;52.100;5.248;2023-04-08T08:56:48;102508.0;;;14.24;83.01
39295;BME280;52361;52.100;5.248;2023-04-08T08:58:25;102511.99999999999;;;14.05;81.38
39295;BME280;52361;52.100;5.248;2023-04-08T09:00:02;102517.0;;;14.17;81.87
39295;BME280;52361;52.100;5.248;2023-04-08T09:03:15;102519.0;;;14.24;80.19
39295;BME280;52361;52.100;5.248;2023-04-08T09:04:56;102516.00000000001;;;14.14;77.36
39295;BME280;52361;52.100;5.248;2023-04-08T09:06:35;102517.0;;;14.19;79.66
39295;BME280;52361;52.100;5.248;2023-04-08T09:08:22;102516.00000000001;;;14.13;77.77
39295;BME280;52361;52.100;5.248;2023-04-08T09:11:35;102517.0;;;14.05;76.47
39295;BME280;52361;52.100;5.248;2023-04-08T09:13:12;102516.00000000001;;;14.33;77.86
39295;BME280;52361;52.100;5.248;2023-04-08T09:14:48;102520.0;;;14.37;76.06
39295;BME280;52361;52.100;5.248;2023-04-08T09:16:25;102517.0;;;14.42;76.41
39295;BME280;52361;52.100;5.248;2023-04-08T09:19:38;102522.0;;;14.71;76.83
39295;BME280;52361;52.100;5.248;2023-04-08T09:21:15;102522.0;;;14.86;71.89
39295;BME280;52361;52.100;5.248;2023-04-08T09:22:57;102526.0;;;15.04;70.61
39295;BME280;52361;52.100;5.248;2023-04-08T09:26:12;102522.0;;;15.08;69.66
39295;BME280;52361;52.100;5.248;2023-04-08T09:27:49;102524.0;;;15.11;69.91
39295;BME280;52361;52.100;5.248;2023-04-08T09:29:26;102523.0;;;15.16;69.22
39295;BME280;52361;52.100;5.248;2023-04-08T09:32:54;102524.0;;;15.37;69.48
39295;BME280;52361;52.100;5.248;2023-04-08T09:34:31;102528.0;;;15.32;68.25
39295;BME280;52361;52.100;5.248;2023-04-08T09:36:07;102523.0;;;15.51;66.47
39295;BME280;52361;52.100;5.248;2023-04-08T09:37:44;102525.0;;;15.78;67.66
39295;BME280;52361;52.100;5.248;2023-04-08T09:42:39;102533.99999999999;;;16.09;65.94
39295;BME280;52361;52.100;5.248;2023-04-08T09:44:15;102534.99999999999;;;16.34;64.05
39295;BME280;52361;52.100;5.248;2023-04-08T09:45:53;102533.0;;;16.55;63.13
39295;BME280;52361;52.100;5.248;2023-04-08T09:49:25;102534.99999999999;;;16.39;67.13
39295;BME280;52361;52.100;5.248;2023-04-08T09:51:05;102534.99999999999;;;16.28;65.42
39295;BME280;52361;52.100;5.248;2023-04-08T09:52:43;102533.0;;;16.43;64.98
39295;BME280;52361;52.100;5.248;2023-04-08T09:54:23;102538.00000000001;;;16.7;63.4
39295;BME280;52361;52.100;5.248;2023-04-08T09:57:50;102533.99999999999;;;16.54;59.01
39295;BME280;52361;52.100;5.248;2023-04-08T09:59:29;102533.0;;;16.73;56.48
39295;BME280;52361;52.100;5.248;2023-04-08T10:01:13;102533.99999999999;;;17.05;57.91
39295;BME280;52361;52.100;5.248;2023-04-08T10:02:54;102529.0;;;17.11;58.89
39295;BME280;52361;52.100;5.248;2023-04-08T10:04:38;102531.0;;;17.02;54.43
39295;BME280;52361;52.100;5.248;2023-04-08T10:07:54;102533.0;;;17.02;55.22
39295;BME280;52361;52.100;5.248;2023-04-08T10:09:31;102531.0;;;17.12;55.23
39295;BME280;52361;52.100;5.248;2023-04-08T10:11:08;102526.0;;;16.86;56.13
39295;BME280;52361;52.100;5.248;2023-04-08T10:14:21;102523.0;;;17.32;57.03
39295;BME280;52361;52.100;5.248;2023-04-08T10:16:29;102523.0;;;17.86;56.54
39295;BME280;52361;52.100;5.248;2023-04-08T10:18:36;102527.0;;;17.91;54.67
39295;BME280;52361;52.100;5.248;2023-04-08T10:20:40;102528.0;;;17.96;55.29
39295;BME280;52361;52.100;5.248;2023-04-08T10:22:49;102533.99999999999;;;18.05;54.46
39295;BME280;52361;52.100;5.248;2023-04-08T10:24:25;102536.99999999999;;;18.07;55.02
39295;BME280;52361;52.100;5.248;2023-04-08T10:26:29;102534.99999999999;;;18.06;56.57
39295;BME280;52361;52.100;5.248;2023-04-08T10:28:23;102536.99999999999;;;17.95;54.82
39295;BME280;52361;52.100;5.248;2023-04-08T10:29:59;102532.0;;;18.18;59.03
39295;BME280;52361;52.100;5.248;2023-04-08T10:33:16;102527.0;;;18.34;58.84
39295;BME280;52361;52.100;5.248;2023-04-08T10:34:54;102527.0;;;18.38;56.68
39295;BME280;52361;52.100;5.248;2023-04-08T10:36:30;102523.0;;;18.7;57.03
39295;BME280;52361;52.100;5.248;2023-04-08T10:38:06;102522.0;;;19.03;56.51
39295;BME280;52361;52.100;5.248;2023-04-08T10:41:24;102519.0;;;19.0;56.05
39295;BME280;52361;52.100;5.248;2023-04-08T10:43:00;102516.00000000001;;;18.81;55.03
39295;BME280;52361;52.100;5.248;2023-04-08T10:44:36;102516.00000000001;;;18.77;55.81
39295;BME280;52361;52.100;5.248;2023-04-08T10:47:48;102508.0;;;18.48;53.32
39295;BME280;52361;52.100;5.248;2023-04-08T10:49:31;102508.0;;;18.43;52.88
39295;BME280;52361;52.100;5.248;2023-04-08T10:51:08;102515.00000000001;;;18.8;55.58
39295;BME280;52361;52.100;5.248;2023-04-08T10:52:45;102508.99999999999;;;18.78;54.06
39295;BME280;52361;52.100;5.248;2023-04-08T10:56:07;102513.00000000001;;;18.97;53.08
39295;BME280;52361;52.100;5.248;2023-04-08T10:57:43;102513.00000000001;;;19.34;52.22
39295;BME280;52361;52.100;5.248;2023-04-08T10:59:27;102508.99999999999;;;19.22;51.47
39295;BME280;52361;52.100;5.248;2023-04-08T11:01:04;102508.0;;;19.3;50.0
39295;BME280;52361;52.100;5.248;2023-04-08T11:04:17;102508.0;;;19.25;50.1
39295;BME280;52361;52.100;5.248;2023-04-08T11:05:56;102514.00000000001;;;19.11;49.91
39295;BME280;52361;52.100;5.248;2023-04-08T11:07:38;102514.00000000001;;;18.34;46.4
39295;BME280;52361;52.100;5.248;2023-04-08T11:10:52;102511.99999999999;;;18.91;51.55
39295;BME280;52361;52.100;5.248;2023-04-08T11:12:30;102511.99999999999;;;18.68;49.69
39295;BME280;52361;52.100;5.248;2023-04-08T11:14:06;102508.99999999999;;;18.71;49.09
39295;BME280;52361;52.100;5.248;2023-04-08T11:15:42;102502.0;;;19.14;53.66
39295;BME280;52361;52.100;5.248;2023-04-08T11:18:56;102505.0;;;19.2;49.72
39295;BME280;52361;52.100;5.248;2023-04-08T11:20:33;102506.0;;;19.36;50.18
39295;BME280;52361;52.100;5.248;2023-04-08T11:22:11;102503.0;;;19.27;48.78
39295;BME280;52361;52.100;5.248;2023-04-08T11:25:24;102506.0;;;18.71;44.84
39295;BME280;52361;52.100;5.248;2023-04-08T11:27:00;102501.0;;;18.62;46.84
39295;BME280;52361;52.100;5.248;2023-04-08T11:28:36;102500.0;;;18.84;48.05